M I D A S
Marine Information and Data Acquisition System
Tripno 746 of the Zeeleeuw from 2004-07-12 06:20:44 to 2004-07-12 15:40:41
Back to CruiseResearch ActivitiesStationsMapUnderway DataData graphs

EquipmentUnitsComment
TimeDGPSUTC
LatitudeDGPSDM.mWGS84
LongitudeDGPSDM.mWGS84
HeadingGyrodeg 
SOGDGPSknotsSpeed over ground
COGDGPSdegCourse over ground
DepthEcho soundermeters200 kHz
Missing or incorrect values are displayed as -999
Navigation data collected by the RV Zeeleeuw from 2004-07-12 06:20:44 to 2004-07-12 15:40:41
                                                                                    Next 1000 lines
Time Latitude Longitude Heading SOG COG Depth
2004-07-12 06:20:52 51°13.595 2°56.096 116.1   201 9.3
2004-07-12 06:20:56 51°13.595 2°56.096 115.6   225 9.5
2004-07-12 06:21:02 51°13.595 2°56.096 115 0.1 228 9.2
2004-07-12 06:21:07 51°13.595 2°56.095 114.3 0.3 286 9.4
2004-07-12 06:21:12 51°13.595 2°56.094 113.6 0.6 286 9.1
2004-07-12 06:21:17 51°13.595 2°56.092 113.2 0.8 290 9.2
2004-07-12 06:21:22 51°13.596 2°56.09 113 1.1 292 9.2
2004-07-12 06:21:27 51°13.596 2°56.087 112.9 1.5 290 9
2004-07-12 06:21:31 51°13.597 2°56.084 113.2 1.7 290 -999
2004-07-12 06:21:37 51°13.598 2°56.079 114.1 2 290 -999
2004-07-12 06:21:42 51°13.599 2°56.074 115 2.2 292 -999
2004-07-12 06:21:47 51°13.601 2°56.069 116 2.3 292 -999
2004-07-12 06:21:53 51°13.602 2°56.063 117.2 2.6 293 -999
2004-07-12 06:21:58 51°13.604 2°56.057 117.8 2.8 294 -999
2004-07-12 06:22:02 51°13.605 2°56.052 118.9 3 294 -999
2004-07-12 06:22:07 51°13.607 2°56.046 119.6 3.1 294 -999
2004-07-12 06:22:13 51°13.61 2°56.038 120.3 3.4 296 -999
2004-07-12 06:22:17 51°13.611 2°56.033 120.8 3.6 297 -999
2004-07-12 06:22:22 51°13.614 2°56.025 121.2 3.8 297 -999
2004-07-12 06:22:28 51°13.617 2°56.016 121.2 3.8 297 -999
2004-07-12 06:22:32 51°13.619 2°56.01 121.2 4 296 -999
2004-07-12 06:22:37 51°13.621 2°56.002 121.2 4.1 296 -999
2004-07-12 06:22:42 51°13.624 2°55.993 121.3 4.2 296 -999
2004-07-12 06:22:47 51°13.626 2°55.985 121.6 4.3 297 -999
2004-07-12 06:22:53 51°13.63 2°55.974 121.7 4.3 296 -999
2004-07-12 06:22:58 51°13.632 2°55.966 121.7 4.3 297 -999
2004-07-12 06:23:02 51°13.634 2°55.959 121.7 4.4 297 -999
2004-07-12 06:23:08 51°13.638 2°55.949 121.9 4.4 297 -999
2004-07-12 06:23:13 51°13.641 2°55.94 122.1 4.5 298 -999
2004-07-12 06:23:17 51°13.643 2°55.933 122.2 4.5 298 -999
2004-07-12 06:23:22 51°13.646 2°55.924 122.4 4.5 299 -999
2004-07-12 06:23:28 51°13.65 2°55.913 122.6 4.6 299 -999
2004-07-12 06:23:33 51°13.653 2°55.905 122.6 4.7 299 -999
2004-07-12 06:23:37 51°13.656 2°55.897 122.6 4.7 299 -999
2004-07-12 06:23:42 51°13.659 2°55.888 122.1 4.8 299 -999
2004-07-12 06:23:48 51°13.663 2°55.877 121.5 4.8 299 -999
2004-07-12 06:23:52 51°13.665 2°55.869 120.8 4.7 298 -999
2004-07-12 06:23:57 51°13.668 2°55.86 120 4.7 298 -999
2004-07-12 06:24:02 51°13.671 2°55.851 119.5 4.7 297 -999
2004-07-12 06:24:08 51°13.674 2°55.84 119 4.6 296 -999
2004-07-12 06:24:13 51°13.677 2°55.832 118.2 4.2 295 -999
2004-07-12 06:24:18 51°13.679 2°55.824 117.4 4.1 295 -999
2004-07-12 06:24:22 51°13.681 2°55.817 116.5 4 294 -999
2004-07-12 06:24:27 51°13.683 2°55.81 115.5 3.8 293 12.1
2004-07-12 06:24:32 51°13.685 2°55.802 114.8 3.8 293 -999
2004-07-12 06:24:37 51°13.687 2°55.794 113.9 3.8 291 -999
2004-07-12 06:24:42 51°13.689 2°55.787 112.6 3.7 291 -999
2004-07-12 06:24:47 51°13.69 2°55.779 111.4 3.7 289 -999
2004-07-12 06:24:53 51°13.692 2°55.77 109.3 3.7 287 -999
2004-07-12 06:24:57 51°13.693 2°55.763 107.5 3.6 285 -999
2004-07-12 06:25:02 51°13.694 2°55.756 105.9 3.5 284 -999
2004-07-12 06:25:07 51°13.695 2°55.749 104.5 3.3 282 -999
2004-07-12 06:25:13 51°13.696 2°55.742 103.7 2.6 281 -999
2004-07-12 06:25:18 51°13.696 2°55.739 102.2 1.8 280 -999
2004-07-12 06:25:22 51°13.697 2°55.737 99.2 1.2 281 -999
2004-07-12 06:25:28 51°13.697 2°55.737 93.6 0.3 305 -999
2004-07-12 06:25:33 51°13.697 2°55.738 87.9 0.6 63 -999
2004-07-12 06:25:37 51°13.698 2°55.74 82.6 1.1 69 -999
2004-07-12 06:25:42 51°13.699 2°55.743 75.2 1.5 64 14.9
2004-07-12 06:25:47 51°13.701 2°55.747 68.9 1.9 63 14.8
2004-07-12 06:25:53 51°13.703 2°55.751 61.5 1.8 53 15
2004-07-12 06:25:56 51°13.703 2°55.752 56.6 1.4 56 15.1
2004-07-12 06:26:02 51°13.704 2°55.754 53.6 0.9 59 15.2
2004-07-12 06:26:07 51°13.704 2°55.755 50.6 0.4 56 15.3
2004-07-12 06:26:12 51°13.703 2°55.754 47.1 0.5 209 15.2
2004-07-12 06:26:17 51°13.702 2°55.753 45.4 0.8 210 15.2
2004-07-12 06:26:22 51°13.701 2°55.752 43.6 1.1 213 15.2
2004-07-12 06:26:27 51°13.699 2°55.75 42.8 1.4 215 14.9
2004-07-12 06:26:32 51°13.698 2°55.748 42 1.5 216 -999
2004-07-12 06:26:38 51°13.695 2°55.746 41.3 1.4 211 -999
2004-07-12 06:26:42 51°13.695 2°55.745 41.2 1 215 -999
2004-07-12 06:26:47 51°13.694 2°55.746 40.2 0.4 199 -999
2004-07-12 06:26:52 51°13.695 2°55.746 36.8 0.7 28 -999
2004-07-12 06:26:57 51°13.696 2°55.747 30.4 1.2 30 -999
2004-07-12 06:27:02 51°13.699 2°55.749 25.2 1.6 21 4.9
2004-07-12 06:27:06 51°13.701 2°55.749 17.8 2 14 5.1
2004-07-12 06:27:12 51°13.705 2°55.75 11.6 2.7   -999
2004-07-12 06:27:18 51°13.71 2°55.749 3.4 3 355 -999
2004-07-12 06:27:22 51°13.714 2°55.747 353.5 3.2 348 -999
2004-07-12 06:27:26 51°13.717 2°55.745 345.6 3.4 340 13.4
2004-07-12 06:27:32 51°13.723 2°55.741 340.4 3.6 335 12.3
2004-07-12 06:27:37 51°13.728 2°55.737 335 4 330 12.1
2004-07-12 06:27:42 51°13.733 2°55.732 331.6 4.3 328 11.6
2004-07-12 06:27:47 51°13.738 2°55.726 329.5 4.6 326 11.1
2004-07-12 06:27:52 51°13.744 2°55.719 328.5 5.2 325 11.1
2004-07-12 06:27:56 51°13.749 2°55.714 328.4 5.4 325 10.5
2004-07-12 06:28:02 51°13.757 2°55.705 328.7 5.6 326 10.6
2004-07-12 06:28:05 51°13.761 2°55.701 329.7 5.8 326 10.6
2004-07-12 06:28:14 51°13.773 2°55.688 330.1 4.7 327 11.1
2004-07-12 06:28:20 51°13.782 2°55.679 330.5 5.9 328 11.2
2004-07-12 06:28:24 51°13.788 2°55.672 331 6.5 327 11
2004-07-12 06:28:28 51°13.795 2°55.666 331.4 6.7 328 11.4
2004-07-12 06:28:34 51°13.804 2°55.656 331.7 6.8 328 11.5
2004-07-12 06:28:37 51°13.809 2°55.652 332.4 6.9 329 11.3
2004-07-12 06:28:44 51°13.821 2°55.641 333.5 7.1 330 11.7
2004-07-12 06:28:49 51°13.83 2°55.633 334.7 7.1 331 11.6
2004-07-12 06:28:54 51°13.839 2°55.626 336.5 7.2 332 11.5
2004-07-12 06:28:59 51°13.848 2°55.619 336.8 7.3 332 11.1
2004-07-12 06:29:04 51°13.857 2°55.611 336.7 7.4 331 11.3
2004-07-12 06:29:09 51°13.866 2°55.604 337 7.5 333 11.6
2004-07-12 06:29:14 51°13.875 2°55.596 337.6 7.5 333 11.5
2004-07-12 06:29:19 51°13.885 2°55.588 337.9 7.6 334 11.2
2004-07-12 06:29:24 51°13.894 2°55.581 338 7.7 334 11.5
2004-07-12 06:29:29 51°13.904 2°55.574 338.5 7.7 335 11.1
2004-07-12 06:29:33 51°13.912 2°55.568 339.2 7.7 334 10.8
2004-07-12 06:29:39 51°13.924 2°55.56 340.3 7.8 336 11.1
2004-07-12 06:29:44 51°13.934 2°55.552 341 7.8 336 11.7
2004-07-12 06:29:48 51°13.942 2°55.547 341.7 7.9 338 11.9
2004-07-12 06:29:54 51°13.954 2°55.539 342.3 7.9 337 12.5
2004-07-12 06:29:57 51°13.96 2°55.535 341.8 7.9 337 12.9
2004-07-12 06:30:04 51°13.974 2°55.525 341.5 8 336 13.1
2004-07-12 06:30:09 51°13.984 2°55.518 341.1 8 337 13.6
2004-07-12 06:30:14 51°13.995 2°55.511 341.1 8 337 13.6
2004-07-12 06:30:19 51°14.005 2°55.504 341.3 8.1 337 13
2004-07-12 06:30:24 51°14.015 2°55.497 341.6 8.1 337 12.6
2004-07-12 06:30:29 51°14.026 2°55.491 341.8 8.1 337 12.7
2004-07-12 06:30:33 51°14.034 2°55.485 341.3 8.1 336 12.2
2004-07-12 06:30:39 51°14.046 2°55.476 341 8.2 336 12.2
2004-07-12 06:30:44 51°14.057 2°55.469 341.1 8.3 336 12.4
2004-07-12 06:30:48 51°14.066 2°55.462 341.3 8.4 335 12.6
2004-07-12 06:30:52 51°14.074 2°55.456 340.8 8.5 335 12.2
2004-07-12 06:30:56 51°14.083 2°55.45 339.7 8.5 334 12.4
2004-07-12 06:31:04 51°14.1 2°55.437 340 8.7 336 12.7
2004-07-12 06:31:09 51°14.111 2°55.429 340.6 8.9 335 12.9
2004-07-12 06:31:14 51°14.123 2°55.42 340.4 9.1 335 13
2004-07-12 06:31:19 51°14.134 2°55.411 339.6 9.3 334 13.4
2004-07-12 06:31:22 51°14.142 2°55.405 338.7 9.6 333 13.3
2004-07-12 06:31:29 51°14.158 2°55.391 337.9 9.8 331 13.4
2004-07-12 06:31:34 51°14.17 2°55.379 336 9.9 330 13.1
2004-07-12 06:31:39 51°14.182 2°55.367 333.9 10.1 327 12.9
2004-07-12 06:31:44 51°14.193 2°55.353 331.7 10.3 325 13.1
2004-07-12 06:31:48 51°14.202 2°55.342 328.9 10.6 322 13.2
2004-07-12 06:31:54 51°14.216 2°55.323 326.3 10.7 319 13.2
2004-07-12 06:31:59 51°14.227 2°55.307 324.5 10.8 318 12.8
2004-07-12 06:32:04 51°14.238 2°55.29 323.4 10.9 317 13
2004-07-12 06:32:09 51°14.249 2°55.274 321 11 315 12.9
2004-07-12 06:32:13 51°14.258 2°55.26 319.8 11 313 12.8
2004-07-12 06:32:16 51°14.264 2°55.249 318.6 11.1 313 12.9
2004-07-12 06:32:24 51°14.28 2°55.218 317 11.4 310 12.8
2004-07-12 06:32:29 51°14.29 2°55.199 315 11.5 310 12.7
2004-07-12 06:32:34 51°14.301 2°55.179 315.9 11.6 312 12.6
2004-07-12 06:32:38 51°14.309 2°55.163 316.4 11.7 310 12.5
2004-07-12 06:32:44 51°14.322 2°55.14 316.2 11.9 311 12.6
2004-07-12 06:32:48 51°14.331 2°55.124 316.7 11.9 312 12.5
2004-07-12 06:32:54 51°14.346 2°55.101 317.5 12.1 314 12.5
2004-07-12 06:32:59 51°14.357 2°55.083 318.8 12.1 315 12.2
2004-07-12 06:33:04 51°14.37 2°55.064 319.2 12.1 316 12.6
2004-07-12 06:33:09 51°14.383 2°55.047 320 12 321 12.5
2004-07-12 06:33:13 51°14.394 2°55.035 322.9 12.1 324 12.7
2004-07-12 06:33:19 51°14.411 2°55.018 326.6 12.2 328 12.5
2004-07-12 06:33:24 51°14.425 2°55.003 329.7 12.3 328 12.6
2004-07-12 06:33:29 51°14.439 2°54.988 330.7 12.4 328 12.2
2004-07-12 06:33:34 51°14.454 2°54.973 329.6 12.6 326 11.8
2004-07-12 06:33:39 51°14.469 2°54.957 329 12.7 327 11.8
2004-07-12 06:33:44 51°14.483 2°54.942 328.9 12.8 327 11.6
2004-07-12 06:33:46 51°14.489 2°54.935 328.9 13 327 11.6
2004-07-12 06:33:54 51°14.513 2°54.91 329.6 13 327 11.5
2004-07-12 06:33:57 51°14.522 2°54.901 329.4 13 327 11.5
2004-07-12 06:34:04 51°14.544 2°54.879 329 13 327 11.4
2004-07-12 06:34:09 51°14.559 2°54.863 329.2 13.1 327 11.3
2004-07-12 06:34:14 51°14.574 2°54.847 329.5 13.1 327 11.4
2004-07-12 06:34:19 51°14.589 2°54.831 329.7 13.1 328 11.4
2004-07-12 06:34:24 51°14.605 2°54.816 329.8 13.2 328 11.5
2004-07-12 06:34:28 51°14.617 2°54.804 329.9 13 328 11.2
2004-07-12 06:34:34 51°14.636 2°54.785 329.7 13.1 328 11.2
2004-07-12 06:34:38 51°14.648 2°54.773 329.8 13 328 11.1
2004-07-12 06:34:44 51°14.666 2°54.754 329.7 13.2 328 11
2004-07-12 06:34:49 51°14.681 2°54.738 329.3 13.1 327 11.1
2004-07-12 06:34:53 51°14.694 2°54.726 329.3 13.1 327 11.2
2004-07-12 06:34:57 51°14.706 2°54.713 329.7 13.1 327 11.1
2004-07-12 06:35:04 51°14.727 2°54.691 329.5 13.2 327 11.3
2004-07-12 06:35:09 51°14.743 2°54.675 329.5 13.3 328 11.4
2004-07-12 06:35:14 51°14.758 2°54.66 329.6 13.2 327 11.1
2004-07-12 06:35:16 51°14.764 2°54.654 329.7 13.2 328 11
2004-07-12 06:35:24 51°14.789 2°54.629 329.8 13.1 328 10.9
2004-07-12 06:35:28 51°14.801 2°54.616 330 13.2 328 11
2004-07-12 06:35:34 51°14.82 2°54.598 330.2 13.2 328 11
2004-07-12 06:35:38 51°14.832 2°54.585 330.1 13 328 10.7
2004-07-12 06:35:44 51°14.85 2°54.567 329.9 13.2 327 10.7
2004-07-12 06:35:49 51°14.865 2°54.552 330 13 328 11
2004-07-12 06:35:53 51°14.878 2°54.539 329.9 13 327 10.8
2004-07-12 06:35:57 51°14.89 2°54.527 329.6 13 327 10.9
2004-07-12 06:36:04 51°14.911 2°54.504 329.5 13.2 327 10.9
2004-07-12 06:36:09 51°14.927 2°54.49 329.8 13 328 10.7
2004-07-12 06:36:14 51°14.942 2°54.474 329.9 13 327 10.7
2004-07-12 06:36:20 51°14.96 2°54.456 329.8 13.1 327 10.4
2004-07-12 06:36:24 51°14.972 2°54.443 329.5 12.9 327 10.4
2004-07-12 06:36:28 51°14.984 2°54.43 329.5 12.8 327 10.3
2004-07-12 06:36:34 51°15.002 2°54.412 329.3 12.9 327 10.2
2004-07-12 06:36:36 51°15.008 2°54.405 329.6 12.9 327 10.2
2004-07-12 06:36:44 51°15.032 2°54.38 329.7 13 327 10.1
2004-07-12 06:36:47 51°15.041 2°54.371 329.8 13.1 327 10.2
2004-07-12 06:36:54 51°15.063 2°54.35 330.2 13.1 327 10.2
2004-07-12 06:36:56 51°15.069 2°54.344 330.3 13 328 10.2
2004-07-12 06:37:04 51°15.093 2°54.319 330.4 13 328 10.2
2004-07-12 06:37:07 51°15.103 2°54.31 330.5 13 328 10.2
2004-07-12 06:37:14 51°15.124 2°54.288 330.5 13.1 329 10.4
2004-07-12 06:37:19 51°15.14 2°54.273 331 13.1 328 10.3
2004-07-12 06:37:24 51°15.155 2°54.257 330.9 13.1 328 10.6
2004-07-12 06:37:29 51°15.17 2°54.242 330.5 13.1 327 10.7
2004-07-12 06:37:34 51°15.186 2°54.226 330.2 13.2 327 10.6
2004-07-12 06:37:38 51°15.198 2°54.213 330.2 13.2 327 10.6
2004-07-12 06:37:44 51°15.216 2°54.195 330.1 13.2 327 10.8
2004-07-12 06:37:48 51°15.229 2°54.182 330.1 13.2 327 10.6
2004-07-12 06:37:54 51°15.247 2°54.163 329.8 13.2 327 10.7
2004-07-12 06:38:00 51°15.266 2°54.144 330 13.2 327 10.7
2004-07-12 06:38:04 51°15.278 2°54.131 330 13.2 327 10.9
2004-07-12 06:38:09 51°15.293 2°54.115 329.7 13.1 326 10.9
2004-07-12 06:38:14 51°15.308 2°54.098 329.8 13 326 10.8
2004-07-12 06:38:19 51°15.323 2°54.082 329.5 13.1 327 11.3
2004-07-12 06:38:24 51°15.338 2°54.067 330 13.1 328 11.1
2004-07-12 06:38:29 51°15.354 2°54.052 330.8 13.1 328 11
2004-07-12 06:38:34 51°15.369 2°54.036 331.4 13 328 11.3
2004-07-12 06:38:36 51°15.375 2°54.03 331.7 13.1 328 11.3
2004-07-12 06:38:44 51°15.4 2°54.006 332.1 13 328 11.4
2004-07-12 06:38:48 51°15.412 2°53.994 332.4 13 329 11.4
2004-07-12 06:38:54 51°15.431 2°53.975 332.6 13.1 328 11.7
2004-07-12 06:38:59 51°15.446 2°53.96 332.8 13 328 11.9
2004-07-12 06:39:04 51°15.461 2°53.945 332.8 12.9 328 11.5
2004-07-12 06:39:08 51°15.473 2°53.933 332.3 12.9 327 11.5
2004-07-12 06:39:12 51°15.485 2°53.921 332.2 13 328 12
2004-07-12 06:39:19 51°15.506 2°53.9 332.3 13 328 11.8
2004-07-12 06:39:24 51°15.522 2°53.884 332.4 13 328 11.9
2004-07-12 06:39:28 51°15.534 2°53.872 332.1 13 328 12.1
2004-07-12 06:39:32 51°15.546 2°53.86 332.1 13 329 12.1
2004-07-12 06:39:39 51°15.568 2°53.839 332.5 13 329 12.1
2004-07-12 06:39:44 51°15.583 2°53.825 332.6 13.1 330 12.2
2004-07-12 06:39:47 51°15.593 2°53.816 333.1 13.1 330 12.3
2004-07-12 06:39:54 51°15.615 2°53.796 333.3 13.1 330 12.4
2004-07-12 06:39:59 51°15.63 2°53.781 333.2 13.1 330 12.4
2004-07-12 06:40:04 51°15.646 2°53.766 333 13.1 330 12.5
2004-07-12 06:40:09 51°15.661 2°53.751 332.6 13.1 329 12.7
2004-07-12 06:40:14 51°15.677 2°53.737 332.4 13.1 329 12.6
2004-07-12 06:40:16 51°15.683 2°53.731 332.4 13.2 329 12.6
2004-07-12 06:40:24 51°15.708 2°53.707 332.4 13.1 329 12.6
2004-07-12 06:40:29 51°15.725 2°53.693 333.2 13 331 12.8
2004-07-12 06:40:34 51°15.74 2°53.679 334.4 13 331 12.8
2004-07-12 06:40:37 51°15.75 2°53.671 335 13.2 332 12.8
2004-07-12 06:40:44 51°15.773 2°53.653 335.8 13.1 333 12.9
2004-07-12 06:40:54 51°15.805 2°53.626 336.3 13 333 12.9
2004-07-12 06:40:59 51°15.821 2°53.613 335.9 12.9 332 13.2
2004-07-12 06:41:04 51°15.837 2°53.599 336 13 332 12.9
2004-07-12 06:41:06 51°15.843 2°53.594 335.5 13 332 12.9
2004-07-12 06:41:18 51°15.881 2°53.561 335.3 13.1 332 13.2
2004-07-12 06:41:22 51°15.894 2°53.55 335.2 13.1 332 13.1
2004-07-12 06:41:27 51°15.91 2°53.537 335.3 13.1 332 13
2004-07-12 06:41:32 51°15.926 2°53.523 335.3 13.1 332 13.2
2004-07-12 06:41:38 51°15.945 2°53.507 335.6 13.1 332 13.3
2004-07-12 06:41:42 51°15.959 2°53.496 336.3 13.2 333 13.4
2004-07-12 06:41:46 51°15.972 2°53.486 336.7 13.3 333 13.4
2004-07-12 06:41:53 51°15.995 2°53.467 336.8 13.3 334 13.3
2004-07-12 06:41:57 51°16.008 2°53.457 337.3 13.3 333 13.5
2004-07-12 06:42:03 51°16.028 2°53.441 337.4 13.3 333 13.5
2004-07-12 06:42:06 51°16.038 2°53.433 337.4 13.2 333 13.5
2004-07-12 06:42:13 51°16.061 2°53.414 337.3 13.2 333 13.9
2004-07-12 06:42:17 51°16.074 2°53.404 337.3 13 333 13.4
2004-07-12 06:42:21 51°16.086 2°53.393 336.6 13.1 333 13.7
2004-07-12 06:42:28 51°16.109 2°53.374 336.7 12.9 333 13.8
2004-07-12 06:42:33 51°16.125 2°53.361 336.7 12.9 333 13.6
2004-07-12 06:42:36 51°16.135 2°53.354 336.6 12.8 333 13.7
2004-07-12 06:42:42 51°16.154 2°53.339 336.6 12.9 334 13.8
2004-07-12 06:42:47 51°16.17 2°53.327 336.7 13.1 335 13.7
2004-07-12 06:42:53 51°16.19 2°53.312 337.5 13.1 334 13.9
2004-07-12 06:42:56 51°16.199 2°53.305 337.3 13.1 334 14.2
2004-07-12 06:43:02 51°16.219 2°53.289 336.7 13.1 333 13.9
2004-07-12 06:43:08 51°16.238 2°53.274 335.7 13.1 333 13.9
2004-07-12 06:43:13 51°16.255 2°53.261 336.2 13.1 334 13.8
2004-07-12 06:43:17 51°16.268 2°53.25 336.4 13.1 333 13.9
2004-07-12 06:43:22 51°16.284 2°53.237 336.3 13.2 333 14
2004-07-12 06:43:28 51°16.303 2°53.221 335.8 13 332 14
2004-07-12 06:43:33 51°16.319 2°53.208 335.6 13 333 13.9
2004-07-12 06:43:36 51°16.329 2°53.2 336 13 333 13.9
2004-07-12 06:43:42 51°16.349 2°53.185 336.8 13.1 334 14.1
2004-07-12 06:43:48 51°16.368 2°53.17 337.6 13.1 335 14.2
2004-07-12 06:43:53 51°16.384 2°53.158 338.1 12.9 335 13.8
2004-07-12 06:43:57 51°16.397 2°53.149 338.5 12.9 335 14
2004-07-12 06:44:01 51°16.41 2°53.139 338.4 12.8 334 14.3
2004-07-12 06:44:07 51°16.43 2°53.124 338.1 12.8 335 14
2004-07-12 06:44:13 51°16.449 2°53.11 338.2 12.8 335 13.9
2004-07-12 06:44:17 51°16.462 2°53.1 338.8 12.7 335 13.9
2004-07-12 06:44:23 51°16.481 2°53.086 338.4 12.7 335 14.2
2004-07-12 06:44:28 51°16.497 2°53.074 338.4 12.7 335 14
2004-07-12 06:44:32 51°16.51 2°53.064 338.7 12.8 335 13.8
2004-07-12 06:44:38 51°16.529 2°53.05 338.4 12.8 335 13.8
2004-07-12 06:44:43 51°16.545 2°53.039 338.5 12.7 335 13.5
2004-07-12 06:44:48 51°16.561 2°53.027 338.3 12.5 335 13.8
2004-07-12 06:44:53 51°16.577 2°53.015 338.6 12.8 335 13.6
2004-07-12 06:44:58 51°16.593 2°53.003 338.6 12.7 335 13.4
2004-07-12 06:45:03 51°16.608 2°52.991 338.1 12.5 335 13.2
2004-07-12 06:45:08 51°16.624 2°52.98 337.6 12.6 335 13.3
2004-07-12 06:45:13 51°16.64 2°52.968 338.5 12.7 336 13.2
2004-07-12 06:45:17 51°16.653 2°52.959 338.9 12.8 336 13.2
2004-07-12 06:45:22 51°16.669 2°52.947 339.1 12.8 336 12.9
2004-07-12 06:45:28 51°16.689 2°52.933 338.7 12.7 336 13.2
2004-07-12 06:45:33 51°16.705 2°52.922 338.4 12.7 336 12.8
2004-07-12 06:45:37 51°16.718 2°52.912 339.1 12.7 337 12.4
2004-07-12 06:45:43 51°16.737 2°52.9 339.9 12.7 337 12.6
2004-07-12 06:45:48 51°16.754 2°52.89 340.4 12.6 337 12.1
2004-07-12 06:45:50 51°16.761 2°52.885 340.8 12.8 337 12.2
2004-07-12 06:45:58 51°16.786 2°52.868 341.1 12.6 337 11.6
2004-07-12 06:46:02 51°16.799 2°52.859 340.8 12.6 336 11.2
2004-07-12 06:46:08 51°16.819 2°52.846 340.4 12.6 337 11.2
2004-07-12 06:46:12 51°16.832 2°52.837 340.7 12.6 337 11.2
2004-07-12 06:46:17 51°16.848 2°52.826 340.8 12.7 337 11
2004-07-12 06:46:23 51°16.867 2°52.813 340.3 12.7 336 10.9
2004-07-12 06:46:28 51°16.883 2°52.801 340.3 12.9 336 10.9
2004-07-12 06:46:32 51°16.896 2°52.792 340.2 12.9 335 11.1
2004-07-12 06:46:38 51°16.916 2°52.778 339.8 12.9 336 11.3
2004-07-12 06:46:41 51°16.926 2°52.771 340.3 12.9 336 11.1
2004-07-12 06:46:47 51°16.945 2°52.758 340.6 12.8 336 11.2
2004-07-12 06:46:52 51°16.961 2°52.747 339.9 12.7 336 11
2004-07-12 06:46:58 51°16.981 2°52.733 340.2 12.8 337 11.5
2004-07-12 06:47:03 51°16.997 2°52.721 340.5 12.9 336 11.6
2004-07-12 06:47:08 51°17.013 2°52.71 340 12.9 336 11.7
2004-07-12 06:47:13 51°17.03 2°52.698 340.1 13 336 12
2004-07-12 06:47:16 51°17.039 2°52.691 340.3 12.9 336 12
2004-07-12 06:47:23 51°17.062 2°52.675 340.2 13 336 11.8
2004-07-12 06:47:28 51°17.079 2°52.664 340.4 13 337 11.7
2004-07-12 06:47:33 51°17.096 2°52.653 341.6 13 338 11.6
2004-07-12 06:47:38 51°17.113 2°52.643 342.5 13 339 11.5
2004-07-12 06:47:43 51°17.13 2°52.633 343.4 13 340 11.2
2004-07-12 06:47:48 51°17.147 2°52.624 343.7 12.9 340 11.5
2004-07-12 06:47:53 51°17.164 2°52.614 344.1 13.1 340 11.3
2004-07-12 06:47:58 51°17.181 2°52.604 344.5 13.1 340 11.4
2004-07-12 06:48:03 51°17.198 2°52.594 344.2 13 340 11.5
2004-07-12 06:48:08 51°17.215 2°52.584 343.9 12.9 339 11.7
2004-07-12 06:48:13 51°17.232 2°52.573 343.3 12.8 338 11.5
2004-07-12 06:48:17 51°17.245 2°52.565 343.1 12.8 339 11.5
2004-07-12 06:48:22 51°17.262 2°52.555 343 12.8 339 11.7
2004-07-12 06:48:28 51°17.282 2°52.543 343.2 12.9 340 11.7
2004-07-12 06:48:32 51°17.295 2°52.535 343.6 12.9 341 11.6
2004-07-12 06:48:38 51°17.316 2°52.526 345.6 12.8 344 11.9
2004-07-12 06:48:43 51°17.333 2°52.519 347.9 12.8 345 12
2004-07-12 06:48:48 51°17.351 2°52.512 350 12.9 348 11.9
2004-07-12 06:48:53 51°17.368 2°52.506 351.7 13 348 11.9
2004-07-12 06:48:58 51°17.386 2°52.501 352.7 13.1 349 12.1
2004-07-12 06:49:03 51°17.404 2°52.495 352.9 13.1 349 11.8
2004-07-12 06:49:08 51°17.421 2°52.49 353.2 13.1 349 12
2004-07-12 06:49:13 51°17.439 2°52.484 353 13.1 348 12.1
2004-07-12 06:49:17 51°17.454 2°52.48 352.9 13.1 349 11.9
2004-07-12 06:49:21 51°17.468 2°52.475 353.2 13 349 11.9
2004-07-12 06:49:28 51°17.493 2°52.468 353.2 13.1 350 12.1
2004-07-12 06:49:32 51°17.508 2°52.464 353.4 13.1 351 12.1
2004-07-12 06:49:36 51°17.522 2°52.462 355.2 13.1 354 12.1
2004-07-12 06:49:42 51°17.544 2°52.459 357.8 13.1 356 11.9
2004-07-12 06:49:48 51°17.566 2°52.458 359.8 13.3 358 12
2004-07-12 06:49:53 51°17.584 2°52.458 1.6 13.2 359 12.2
2004-07-12 06:49:57 51°17.599 2°52.458 2.9 13.2 359 11.9
2004-07-12 06:50:03 51°17.62 2°52.458 3.2 13.2   12.1
2004-07-12 06:50:08 51°17.639 2°52.458 4.3 13.1 3 12.1
2004-07-12 06:50:12 51°17.653 2°52.46 5.7 13.2 3 12.1
2004-07-12 06:50:18 51°17.675 2°52.463 6.9 13.3 5 12.1
2004-07-12 06:50:23 51°17.694 2°52.465 8.1 13.4 5 12.2
2004-07-12 06:50:28 51°17.712 2°52.469 8.8 13.3 6 12.1
2004-07-12 06:50:33 51°17.731 2°52.472 9.4 13.3 6 12.2
2004-07-12 06:50:38 51°17.749 2°52.476 9.4 13.2 6 11.7
2004-07-12 06:50:43 51°17.767 2°52.481 9.8 13.2 7 12
2004-07-12 06:50:47 51°17.782 2°52.485 12.2 13.2 10 12.2
2004-07-12 06:50:53 51°17.803 2°52.493 14.3 13.2 14 12
2004-07-12 06:50:57 51°17.817 2°52.498 16.4 13.3 14 12
2004-07-12 06:51:03 51°17.839 2°52.508 17.5 13.4 16 12.4
2004-07-12 06:51:08 51°17.857 2°52.517 18.3 13.5 18 12.1
2004-07-12 06:51:13 51°17.875 2°52.526 20.1 13.5 17 12.2
2004-07-12 06:51:18 51°17.893 2°52.535 19.6 13.4 17 12.2
2004-07-12 06:51:20 51°17.9 2°52.538 19.7 13.4 17 12.4
2004-07-12 06:51:28 51°17.929 2°52.552 19.8 13.5 17 12.2
2004-07-12 06:51:33 51°17.947 2°52.561 19.9 13.6 17 12.3
2004-07-12 06:51:37 51°17.961 2°52.568 19.4 13.5 17 12.3
2004-07-12 06:51:42 51°17.979 2°52.576 19.4 13.5 16 12.3
2004-07-12 06:51:48 51°18.001 2°52.586 19.2 13.6 17 12.3
2004-07-12 06:51:52 51°18.015 2°52.594 19.1 13.7 19 12.5
2004-07-12 06:51:57 51°18.033 2°52.605 22 13.7 21 12.5
2004-07-12 06:52:02 51°18.05 2°52.617 23.9 13.6 22 12.3
2004-07-12 06:52:08 51°18.071 2°52.632 26.7 13.8 25 12.4
2004-07-12 06:52:12 51°18.084 2°52.643 27.8 13.7 26 12.5
2004-07-12 06:52:17 51°18.101 2°52.657 29.3 13.6 27 12.5
2004-07-12 06:52:23 51°18.121 2°52.674 30.2 13.7 28 12.3
2004-07-12 06:52:28 51°18.138 2°52.688 31 13.7 28 12.4
2004-07-12 06:52:33 51°18.154 2°52.702 30.5 13.4 29 12.5
2004-07-12 06:52:36 51°18.164 2°52.711 31.2 13.3 29 12.5
2004-07-12 06:52:43 51°18.187 2°52.731 31.2 13.6 29 12.7
2004-07-12 06:52:47 51°18.2 2°52.742 31 13.5 28 12.7
2004-07-12 06:52:53 51°18.22 2°52.76 32.1 13.7 31 12.6
2004-07-12 06:52:58 51°18.236 2°52.776 33.2 13.8 31 12.5
2004-07-12 06:53:03 51°18.252 2°52.793 34.2 13.6 33 12.6
2004-07-12 06:53:08 51°18.268 2°52.809 35.5 13.6 33 12.7
2004-07-12 06:53:13 51°18.284 2°52.826 35.9 13.7 34 12.8
2004-07-12 06:53:18 51°18.3 2°52.842 36.7 13.9 32 12.8
2004-07-12 06:53:22 51°18.313 2°52.856 35.9 13.9 33 12.9
2004-07-12 06:53:28 51°18.331 2°52.877 36.2 13.5 36 12.8
2004-07-12 06:53:33 51°18.345 2°52.897 39.8 13.6 41 13
2004-07-12 06:53:38 51°18.36 2°52.917 42.8 13.7 40 12.8
2004-07-12 06:53:42 51°18.371 2°52.933 44.2 13.9 42 12.9
2004-07-12 06:53:48 51°18.388 2°52.958 45.6 13.9 43 12.8
2004-07-12 06:53:53 51°18.402 2°52.98 46.3 13.8 44 12.9
2004-07-12 06:53:58 51°18.415 2°53.001 46.8 13.8 45 12.8
2004-07-12 06:54:00 51°18.421 2°53.01 47.7 13.9 44 12.8
2004-07-12 06:54:08 51°18.442 2°53.045 47.9 13.9 47 12.8
2004-07-12 06:54:13 51°18.456 2°53.066 48.6 13.7 44 12.9
2004-07-12 06:54:17 51°18.467 2°53.083 48 13.6 46 13
2004-07-12 06:54:22 51°18.481 2°53.104 47.9 13.8 44 13
2004-07-12 06:54:28 51°18.497 2°53.131 47.8 13.9 44 13.1
2004-07-12 06:54:33 51°18.51 2°53.152 46.8 13.8 45 13.1
2004-07-12 06:54:37 51°18.521 2°53.169 47.8 13.8 44 13.2
2004-07-12 06:54:42 51°18.535 2°53.19 47.1 13.8 44 13.3
2004-07-12 06:54:48 51°18.552 2°53.216 46.8 14 45 13.2
2004-07-12 06:54:53 51°18.566 2°53.237 46.9 13.9 44 13.2
2004-07-12 06:54:57 51°18.577 2°53.254 47.1 13.9 44 13.1
2004-07-12 06:55:02 51°18.591 2°53.276 47.1 14 44 13.2
2004-07-12 06:55:08 51°18.608 2°53.301 46.1 13.9 45 13.2
2004-07-12 06:55:13 51°18.622 2°53.322 46.9 13.9 44 13.2
2004-07-12 06:55:17 51°18.633 2°53.34 46.4 14 44 13.2
2004-07-12 06:55:23 51°18.65 2°53.366 47.8 14.1 44 13.2
2004-07-12 06:55:28 51°18.664 2°53.387 46.7 14 43 13.2
2004-07-12 06:55:33 51°18.678 2°53.408 46.2 13.7 43 13.2
2004-07-12 06:55:37 51°18.689 2°53.425 46.5 13.7 45 12.8
2004-07-12 06:55:42 51°18.702 2°53.448 47.8 13.9 46 13.2
2004-07-12 06:55:47 51°18.715 2°53.47 49.3 13.8 47 13
2004-07-12 06:55:52 51°18.728 2°53.493 50 13.6 48 13.2
2004-07-12 06:55:56 51°18.738 2°53.511 50 13.5 47 13.1
2004-07-12 06:56:03 51°18.756 2°53.543 50.9 13.8 49 13.2
2004-07-12 06:56:08 51°18.769 2°53.566 51.6 13.9 49 13.4
2004-07-12 06:56:13 51°18.781 2°53.589 51 13.9 48 13.3
2004-07-12 06:56:18 51°18.794 2°53.612 51.2 13.8 49 13.3
2004-07-12 06:56:23 51°18.807 2°53.634 52 13.8 49 13.4
2004-07-12 06:56:27 51°18.817 2°53.653 52.1 14.1 50 13.2
2004-07-12 06:56:33 51°18.832 2°53.681 52 14 47 13.4
2004-07-12 06:56:38 51°18.845 2°53.704 51.4 13.9 49 13.3
2004-07-12 06:56:44 51°18.86 2°53.732 52 13.9 50 13.6
2004-07-12 06:56:48 51°18.87 2°53.751 51.8 14 51 13.5
2004-07-12 06:56:53 51°18.883 2°53.774 52.6 13.9 48 13.4
2004-07-12 06:56:58 51°18.895 2°53.797 52.1 13.9 49 13.4
2004-07-12 06:57:04 51°18.91 2°53.825 51.6 13.8 48 13.4
2004-07-12 06:57:08 51°18.92 2°53.844 51.9 13.9 50 13.4
2004-07-12 06:57:13 51°18.933 2°53.866 52 13.8 46 13.7
2004-07-12 06:57:16 51°18.94 2°53.88 50.8 13.7 50 13.6
2004-07-12 06:57:23 51°18.958 2°53.912 51.8 13.7 48 13.7
2004-07-12 06:57:28 51°18.971 2°53.935 50.6 13.8 49 13.2
2004-07-12 06:57:32 51°18.981 2°53.954 51.9 13.6 47 13.2
2004-07-12 06:57:36 51°18.991 2°53.971 50.8 13.6 50 13.3
2004-07-12 06:57:42 51°19.006 2°53.999 50.9 13.6 48 13.5
2004-07-12 06:57:48 51°19.02 2°54.027 52.1 13.8 53 13.3
2004-07-12 06:57:53 51°19.032 2°54.051 54 13.8 51 13.5
2004-07-12 06:57:56 51°19.038 2°54.067 55.9 13.9 56 13.8
2004-07-12 06:58:02 51°19.052 2°54.096 57.2 13.8 53 13.7
2004-07-12 06:58:05 51°19.058 2°54.111 58.2 13.8 57 13.9
2004-07-12 06:58:14 51°19.077 2°54.158 59.5 13.8 58 13.5
2004-07-12 06:58:17 51°19.083 2°54.174 60.9 14.1 60 13.8
2004-07-12 06:58:24 51°19.097 2°54.211 60.7 13.8 58 13.5
2004-07-12 06:58:26 51°19.101 2°54.221 61 13.9 59 13.4
2004-07-12 06:58:34 51°19.116 2°54.263 61.1 13.6 59 13.2
2004-07-12 06:58:39 51°19.126 2°54.29 62.3 13.9 59 13.3
2004-07-12 06:58:44 51°19.136 2°54.315 62.5 13.9 58 13.4
2004-07-12 06:58:48 51°19.145 2°54.336 61.6 13.9 58 13.6
2004-07-12 06:58:54 51°19.157 2°54.368 61.6 14 58 13.6
2004-07-12 06:58:59 51°19.167 2°54.394 61 13.9 57 13.8
2004-07-12 06:59:04 51°19.177 2°54.42 61.4 13.9 58 13.9
2004-07-12 06:59:09 51°19.187 2°54.447 61.4 14.1 59 13.8
2004-07-12 06:59:13 51°19.195 2°54.468 61.9 14.1 59 14
2004-07-12 06:59:19 51°19.207 2°54.499 62 13.6 59 13.7
2004-07-12 06:59:24 51°19.217 2°54.525 62.5 13.9 57 13.5
2004-07-12 06:59:28 51°19.226 2°54.546 61.6 13.9 57 13.5
2004-07-12 06:59:34 51°19.238 2°54.579 61.5 13.8 59 13.7
2004-07-12 06:59:38 51°19.246 2°54.6 61 13.8 57 13.9
2004-07-12 06:59:44 51°19.257 2°54.633 61.2 14 60 14.1
2004-07-12 06:59:49 51°19.268 2°54.658 60.9 13.8 58 13.4
2004-07-12 06:59:54 51°19.277 2°54.684 62.2 13.6 61 13.7
2004-07-12 06:59:59 51°19.287 2°54.711 62.2 13.9 60 13.7
2004-07-12 07:00:04 51°19.297 2°54.737 61.8 13.9 59 14.1
2004-07-12 07:00:09 51°19.306 2°54.764 60.7 14 61 13.6
2004-07-12 07:00:14 51°19.317 2°54.788 61.9 13.9 56 13.4
2004-07-12 07:00:18 51°19.324 2°54.81 61.6 14 59 13.3
2004-07-12 07:00:24 51°19.337 2°54.84 60.9 13.9 57 13.1
2004-07-12 07:00:28 51°19.345 2°54.861 60.9 13.8 57 13.4
2004-07-12 07:00:34 51°19.358 2°54.893 61.2 13.9 57 13.4
2004-07-12 07:00:40 51°19.371 2°54.923 58.6 13.8 54 13.8
2004-07-12 07:00:44 51°19.379 2°54.944 59.2 13.7 57 13.9
2004-07-12 07:00:48 51°19.387 2°54.965 60.1 13.9 57 13.5
2004-07-12 07:00:53 51°19.397 2°54.991 61.8 13.9 59 13.7
2004-07-12 07:01:00 51°19.41 2°55.029 61.5 13.9 61 13.9
2004-07-12 07:01:04 51°19.418 2°55.05 63.2 14.1 60 13.7
2004-07-12 07:01:09 51°19.428 2°55.076 62.2 13.9 59 13.8
2004-07-12 07:01:14 51°19.438 2°55.102 62.4 13.8 59 13.8
2004-07-12 07:01:20 51°19.449 2°55.135 61.7 14.1 62 13.7
2004-07-12 07:01:24 51°19.458 2°55.156 63.3 14 57 13.9
2004-07-12 07:01:29 51°19.467 2°55.182 61.9 13.9 60 14
2004-07-12 07:01:33 51°19.475 2°55.203 62.3 13.9 59 13.8
2004-07-12 07:01:40 51°19.489 2°55.241 63.6 14 60 14
2004-07-12 07:01:44 51°19.497 2°55.262 62.9 13.9 60 14.1
2004-07-12 07:01:49 51°19.506 2°55.289 64.1 13.9 59 13.8
2004-07-12 07:01:54 51°19.516 2°55.315 62.9 13.9 59 14.1
2004-07-12 07:01:59 51°19.526 2°55.342 62.4 14 60 13.8
2004-07-12 07:02:04 51°19.536 2°55.369 62.4 14.1 59 13.8
2004-07-12 07:02:08 51°19.544 2°55.39 62.1 13.9 59 13.8
2004-07-12 07:02:14 51°19.556 2°55.422 62.2 13.9 60 13.9
2004-07-12 07:02:19 51°19.566 2°55.448 62.6 14 59 13.7
2004-07-12 07:02:24 51°19.575 2°55.476 62.4 14.1 61 13.8
2004-07-12 07:02:28 51°19.583 2°55.497 63.2 14.1 57 13.8
2004-07-12 07:02:34 51°19.596 2°55.529 62.3 14.1 59 13.7
2004-07-12 07:02:39 51°19.606 2°55.555 62.4 14 59 13.6
2004-07-12 07:02:44 51°19.616 2°55.582 61.4 13.9 57 13.6
2004-07-12 07:02:48 51°19.624 2°55.604 62.3 14 58 13.5
2004-07-12 07:02:54 51°19.635 2°55.636 61.7 13.9 60 13.5
2004-07-12 07:02:59 51°19.645 2°55.663 64.1 14.1 62 13.8
2004-07-12 07:03:04 51°19.655 2°55.69 62.5 14 59 13.5
2004-07-12 07:03:09 51°19.664 2°55.717 62.2 13.9 62 13.5
2004-07-12 07:03:13 51°19.672 2°55.737 62.4 13.9 59 13.6
2004-07-12 07:03:19 51°19.683 2°55.77 62 13.9 60 13.5
2004-07-12 07:03:24 51°19.694 2°55.796 62.4 13.7 59 13.9
2004-07-12 07:03:28 51°19.701 2°55.818 62.1 14 63 13.7
2004-07-12 07:03:34 51°19.712 2°55.848 62.9 13.6 58 13.4
2004-07-12 07:03:37 51°19.718 2°55.864 62.6 13.7 60 13.5
2004-07-12 07:03:44 51°19.731 2°55.901 62.7 13.8 60 13.7
2004-07-12 07:03:49 51°19.74 2°55.928 63.5 13.9 62 13.9
2004-07-12 07:03:54 51°19.751 2°55.955 63.9 14 60 14.2
2004-07-12 07:03:59 51°19.759 2°55.982 63.7 14.1 62 14.1
2004-07-12 07:04:04 51°19.769 2°56.009 64.7 14 61 14.2
2004-07-12 07:04:08 51°19.776 2°56.031 65 14 63 14.2
2004-07-12 07:04:14 51°19.786 2°56.065 64.8 14 64 13.9
2004-07-12 07:04:18 51°19.794 2°56.086 65 13.9 63 13.8
2004-07-12 07:04:24 51°19.804 2°56.119 65.8 14 62 13.5
2004-07-12 07:04:28 51°19.812 2°56.141 65.1 14.1 62 13.5
2004-07-12 07:04:34 51°19.823 2°56.174 64.7 14 60 13.8
2004-07-12 07:04:39 51°19.832 2°56.202 65 14.1 63 13.8
2004-07-12 07:04:44 51°19.841 2°56.229 64.5 14.2 62 13.5
2004-07-12 07:04:49 51°19.85 2°56.257 64.4 14 62 13.8
2004-07-12 07:04:53 51°19.858 2°56.279 64.5 14 61 13.6
2004-07-12 07:04:59 51°19.869 2°56.312 64.7 14.1 62 13.6
2004-07-12 07:05:04 51°19.879 2°56.337 64 14.1 61 13.6
2004-07-12 07:05:08 51°19.885 2°56.36 63.7 14 63 13.9
2004-07-12 07:05:14 51°19.897 2°56.391 64 14.1 60 13.7
2004-07-12 07:05:20 51°19.908 2°56.424 64.8 14.1 61 13.9
2004-07-12 07:05:24 51°19.915 2°56.446 63.6 14.1 63 13.7
2004-07-12 07:05:28 51°19.923 2°56.467 64.6 14 62 13.6
2004-07-12 07:05:34 51°19.934 2°56.5 64.6 14 62 13.5
2004-07-12 07:05:39 51°19.943 2°56.527 65.4 14 62 13.2
2004-07-12 07:05:44 51°19.952 2°56.555 64.9 14.1 63 13.5
2004-07-12 07:05:49 51°19.961 2°56.583 65.6 14 63 13.4
2004-07-12 07:05:54 51°19.971 2°56.61 65.8 14.1 61 13.4
2004-07-12 07:05:59 51°19.98 2°56.638 65.3 14.2 60 13.8
2004-07-12 07:06:04 51°19.99 2°56.666 63.7 14.2 62 13.7
2004-07-12 07:06:08 51°19.997 2°56.688 64.1 14.2 62 13.7
2004-07-12 07:06:14 51°20.009 2°56.72 63.9 14.1 60 13.6
2004-07-12 07:06:20 51°20.02 2°56.754 63.6 14.2 62 13.8
2004-07-12 07:06:24 51°20.028 2°56.775 64.9 14.2 62 13.8
2004-07-12 07:06:29 51°20.036 2°56.804 64.6 14.3 64 13.9
2004-07-12 07:06:34 51°20.046 2°56.832 65.9 14.3 62 13.9
2004-07-12 07:06:40 51°20.056 2°56.864 64.8 14.2 62 13.8
2004-07-12 07:06:44 51°20.064 2°56.887 65.7 14.2 63 13.7
2004-07-12 07:06:49 51°20.073 2°56.914 66 14.1 61 13.5
2004-07-12 07:06:54 51°20.083 2°56.941 64.5 14.1 60 13.6
2004-07-12 07:06:58 51°20.091 2°56.963 63.3 14 60 13.5
2004-07-12 07:07:04 51°20.102 2°56.995 63.1 14 61 13.7
2004-07-12 07:07:09 51°20.112 2°57.023 63.3 14.3 61 13.6
2004-07-12 07:07:14 51°20.121 2°57.05 64 14.3 60 13.7
2004-07-12 07:07:19 51°20.131 2°57.077 63.7 14.2 60 13.8
2004-07-12 07:07:23 51°20.139 2°57.099 63.2 13.9 60 13.8
2004-07-12 07:07:28 51°20.148 2°57.126 64.3 14.1 62 13.7
2004-07-12 07:07:34 51°20.159 2°57.16 64.7 14.2 62 13.8
2004-07-12 07:07:38 51°20.166 2°57.182 64.9 14.1 62 13.7
2004-07-12 07:07:44 51°20.178 2°57.214 64.9 13.9 59 13.5
2004-07-12 07:07:48 51°20.185 2°57.236 63.2 13.9 59 13.6
2004-07-12 07:07:53 51°20.194 2°57.264 64.8 14.1 62 13.7
2004-07-12 07:07:59 51°20.206 2°57.297 64 14.1 62 13.7
2004-07-12 07:08:04 51°20.215 2°57.324 63.8 14.1 62 13.5
2004-07-12 07:08:09 51°20.224 2°57.352 65.3 14.1 62 13.8
2004-07-12 07:08:14 51°20.234 2°57.378 64.1 14.1 60 13.8
2004-07-12 07:08:19 51°20.243 2°57.406 64.7 14.1 63 13.7
2004-07-12 07:08:24 51°20.252 2°57.434 64.9 14.2 61 13.9
2004-07-12 07:08:29 51°20.262 2°57.461 64.1 14.1 61 13.8
2004-07-12 07:08:34 51°20.271 2°57.488 64 14.1 61 13.6
2004-07-12 07:08:39 51°20.281 2°57.515 64.3 14.1 60 13.4
2004-07-12 07:08:44 51°20.291 2°57.542 63.8 14 61 13.5
2004-07-12 07:08:49 51°20.3 2°57.57 65 14.1 62 13.5
2004-07-12 07:08:54 51°20.31 2°57.597 64.6 14.1 59 13.4
2004-07-12 07:08:58 51°20.317 2°57.619 63.7 14.1 64 13.3
2004-07-12 07:09:04 51°20.328 2°57.652 65.2 14 59 13.1
2004-07-12 07:09:09 51°20.337 2°57.68 65.3 14.1 63 13.4
2004-07-12 07:09:14 51°20.346 2°57.707 64 14 60 13.3
2004-07-12 07:09:19 51°20.356 2°57.733 63.8 13.8 61 13.2
2004-07-12 07:09:24 51°20.365 2°57.761 65.1 14 60 13.5
2004-07-12 07:09:29 51°20.374 2°57.788 64.1 14.1 61 13.6
2004-07-12 07:09:34 51°20.384 2°57.815 63.5 14 61 13.4
2004-07-12 07:09:38 51°20.391 2°57.837 64.1 14.1 61 13.5
2004-07-12 07:09:44 51°20.403 2°57.871 64.5 14.1 61 13.6
2004-07-12 07:09:49 51°20.412 2°57.899 63.6 14.2 62 13.4
2004-07-12 07:09:54 51°20.422 2°57.926 64.1 14.1 61 13.7
2004-07-12 07:09:58 51°20.429 2°57.947 63.6 13.8 62 13.4
2004-07-12 07:10:04 51°20.441 2°57.979 64 13.9 62 13.2
2004-07-12 07:10:09 51°20.45 2°58.006 63.6 13.9 60 13.3
2004-07-12 07:10:14 51°20.459 2°58.034 63.5 14 63 13.2
2004-07-12 07:10:18 51°20.466 2°58.056 65.1 14.1 62 13.3
2004-07-12 07:10:24 51°20.477 2°58.088 64.8 13.9 62 13.4
2004-07-12 07:10:29 51°20.486 2°58.116 66 13.9 62 13.1
2004-07-12 07:10:33 51°20.493 2°58.137 65.3 14 61 13.1
2004-07-12 07:10:40 51°20.506 2°58.176 64 14 61 13.4
2004-07-12 07:10:44 51°20.514 2°58.198 63.8 14.2 61 13.5
2004-07-12 07:10:49 51°20.524 2°58.224 63.9 14 60 13.4
2004-07-12 07:10:54 51°20.533 2°58.252 64.3 13.9 62 13.4
2004-07-12 07:10:59 51°20.542 2°58.279 63.9 13.8 60 13.7
2004-07-12 07:11:04 51°20.551 2°58.307 65.4 14 63 13.6
2004-07-12 07:11:09 51°20.561 2°58.334 64.6 14 60 13.5
2004-07-12 07:11:13 51°20.568 2°58.356 63.9 14 60 13.4
2004-07-12 07:11:19 51°20.58 2°58.388 63.9 14.1 61 13.4
2004-07-12 07:11:24 51°20.588 2°58.417 65.3 14.1 60 13.6
2004-07-12 07:11:29 51°20.598 2°58.443 63.6 14.1 60 13.4
2004-07-12 07:11:34 51°20.608 2°58.47 64.3 14 62 13.2
2004-07-12 07:11:39 51°20.617 2°58.497 63.9 14 60 13.2
2004-07-12 07:11:44 51°20.627 2°58.525 64.4 14.3 61 13.1
2004-07-12 07:11:49 51°20.637 2°58.551 62.7 14 59 13.3
2004-07-12 07:11:53 51°20.644 2°58.574 63.9 14.1 64 13.3
2004-07-12 07:11:59 51°20.656 2°58.606 63.7 14.1 60 13.5
2004-07-12 07:12:04 51°20.664 2°58.634 63.6 14.1 64 13.3
2004-07-12 07:12:08 51°20.673 2°58.656 65.2 14.2 60 13.1
2004-07-12 07:12:14 51°20.683 2°58.689 64.7 14.1 62 13.3
2004-07-12 07:12:20 51°20.694 2°58.722 65.2 14 64 13.6
2004-07-12 07:12:24 51°20.701 2°58.745 64.7 14.1 63 13.3
2004-07-12 07:12:28 51°20.708 2°58.767 65.9 14.1 63 13.3
2004-07-12 07:12:34 51°20.719 2°58.8 65 14.1 62 13.3
2004-07-12 07:12:39 51°20.728 2°58.827 64.5 14 62 13.3
2004-07-12 07:12:44 51°20.737 2°58.855 65.8 14.2 62 13.1
2004-07-12 07:12:49 51°20.746 2°58.883 65.3 14.1 61 13.2
2004-07-12 07:12:54 51°20.755 2°58.911 64.5 14 63 13.5
2004-07-12 07:12:59 51°20.764 2°58.938 64.9 13.9 61 13.3
2004-07-12 07:13:04 51°20.773 2°58.965 64.5 14.1 61 13.1
2004-07-12 07:13:08 51°20.781 2°58.986 63.8 14.1 60 12.9
2004-07-12 07:13:14 51°20.791 2°59.02 64.5 14 64 13.2
2004-07-12 07:13:18 51°20.799 2°59.042 65.5 13.9 60 13.2
2004-07-12 07:13:24 51°20.809 2°59.075 64.5 14 62 13.2
2004-07-12 07:13:29 51°20.819 2°59.102 64.3 14.1 60 13.1
2004-07-12 07:13:34 51°20.829 2°59.129 63.4 14.2 61 13.1
2004-07-12 07:13:39 51°20.838 2°59.156 64 14.1 61 13.1
2004-07-12 07:13:44 51°20.847 2°59.184 64.9 14.2 61 13.4
2004-07-12 07:13:49 51°20.857 2°59.211 63.8 14.1 61 13.3
2004-07-12 07:13:54 51°20.867 2°59.238 63.8 14.2 59 13.2
2004-07-12 07:14:00 51°20.878 2°59.271 63.6 14.3 61 13.2
2004-07-12 07:14:04 51°20.886 2°59.293 62.6 14 60 13
2004-07-12 07:14:09 51°20.895 2°59.32 63.3 13.9 59 13
2004-07-12 07:14:14 51°20.905 2°59.347 62.6 14.1 60 12.9
2004-07-12 07:14:18 51°20.913 2°59.369 63.1 14.2 60 12.9
2004-07-12 07:14:24 51°20.924 2°59.401 63.2 14.2 61 12.8
2004-07-12 07:14:28 51°20.931 2°59.423 62.9 14.1 62 13.1
2004-07-12 07:14:34 51°20.942 2°59.456 63.8 13.9 61 13.1
2004-07-12 07:14:39 51°20.952 2°59.483 63.1 14 61 13.4
2004-07-12 07:14:44 51°20.961 2°59.51 62.6 14.1 62 13.2
2004-07-12 07:14:49 51°20.971 2°59.538 63.8 14.2 61 13
2004-07-12 07:14:54 51°20.98 2°59.565 63.9 14.1 61 13.3
2004-07-12 07:14:59 51°20.99 2°59.592 64.4 14 61 13.4
2004-07-12 07:15:04 51°20.999 2°59.62 64.4 14.2 62 13.4
2004-07-12 07:15:09 51°21.008 2°59.648 64.5 14.3 63 13.5
2004-07-12 07:15:14 51°21.017 2°59.676 65.1 14.3 62 13.5
2004-07-12 07:15:19 51°21.027 2°59.704 64.7 14.1 61 13.5
2004-07-12 07:15:24 51°21.036 2°59.732 64.5 14.3 60 13.4
2004-07-12 07:15:28 51°21.043 2°59.754 63.8 14.2 60 13.4
2004-07-12 07:15:34 51°21.054 2°59.787 63.4 14.2 62 13.2
2004-07-12 07:15:38 51°21.062 2°59.809 65.2 14.2 63 13.4
2004-07-12 07:15:44 51°21.073 2°59.843 64.5 14.3 62 13.2
2004-07-12 07:15:49 51°21.082 2°59.871 64.5 14.2 63 13.3
2004-07-12 07:15:53 51°21.09 2°59.892 64.6 14.1 62 13
2004-07-12 07:16:00 51°21.102 2°59.931 64 14.1 60 13
2004-07-12 07:16:04 51°21.11 2°59.953 64 14.1 61 12.8
2004-07-12 07:16:09 51°21.119 2°59.981 64.5 14.2 62 12.8
2004-07-12 07:16:14 51°21.128 3°0.008 64 14.2 62 13.2
2004-07-12 07:16:19 51°21.138 3°0.036 64.4 14.1 61 13.2
2004-07-12 07:16:24 51°21.147 3°0.064 64.4 14.2 62 13.4
2004-07-12 07:16:29 51°21.156 3°0.091 64.5 14.3 61 13.4
2004-07-12 07:16:34 51°21.166 3°0.119 63.8 14.2 60 13.4
2004-07-12 07:16:39 51°21.175 3°0.147 63.9 14.2 62 13.3
2004-07-12 07:16:44 51°21.184 3°0.174 63.7 14.1 63 13.3
2004-07-12 07:16:48 51°21.192 3°0.197 65.1 14.1 63 13.1
2004-07-12 07:16:54 51°21.203 3°0.23 63.8 14.3 61 13.2
2004-07-12 07:16:59 51°21.213 3°0.257 62.9 14.2 61 13.3
2004-07-12 07:17:04 51°21.222 3°0.285 63.8 14.3 61 13.3
2004-07-12 07:17:08 51°21.23 3°0.307 63.8 14.3 61 13.4
2004-07-12 07:17:14 51°21.24 3°0.342 64 14.3 63 13.2
2004-07-12 07:17:19 51°21.251 3°0.369 64.8 14.4 60 13.2
2004-07-12 07:17:24 51°21.26 3°0.397 63.3 14.3 61 13.3
2004-07-12 07:17:28 51°21.268 3°0.419 63.2 14.3 61 13.3
2004-07-12 07:17:33 51°21.277 3°0.447 63.5 14.5 62 13.3
2004-07-12 07:17:39 51°21.289 3°0.481 63.6 14.4 60 13.1
2004-07-12 07:17:44 51°21.299 3°0.509 63.1 14.2 62 13.4
2004-07-12 07:17:49 51°21.308 3°0.537 64 14.3 63 13.1
2004-07-12 07:17:54 51°21.317 3°0.566 64.6 14.4 61 13
2004-07-12 07:18:00 51°21.329 3°0.599 64.4 14.5 62 13.2
2004-07-12 07:18:04 51°21.336 3°0.621 63.5 14.2 62 13.2
2004-07-12 07:18:09 51°21.345 3°0.649 64.7 14.2 62 13.2
2004-07-12 07:18:14 51°21.354 3°0.677 64.6 14.2 63 13.1
2004-07-12 07:18:19 51°21.364 3°0.705 63.4 14.4 61 13.2
2004-07-12 07:18:24 51°21.373 3°0.733 64.4 14.3 59 13.2
2004-07-12 07:18:26 51°21.377 3°0.744 63.3 14.2 61 13.2
2004-07-12 07:18:34 51°21.392 3°0.789 64.8 14.3 60 13.3
2004-07-12 07:18:39 51°21.401 3°0.817 63.5 14.3 61 13.2
2004-07-12 07:18:44 51°21.41 3°0.845 64.4 14.3 61 13
2004-07-12 07:18:48 51°21.418 3°0.867 64.4 14.4 64 13.3
2004-07-12 07:18:54 51°21.429 3°0.901 64.9 14.3 61 13
2004-07-12 07:18:59 51°21.438 3°0.929 64.1 14.2 63 13.4
2004-07-12 07:19:04 51°21.446 3°0.957 65.6 14.2 62 13.3
2004-07-12 07:19:09 51°21.455 3°0.985 65.3 14.3 63 13.2
2004-07-12 07:19:13 51°21.463 3°1.007 64.5 14.3 62 13.2
2004-07-12 07:19:19 51°21.474 3°1.042 65.2 14.4 64 13.4
2004-07-12 07:19:24 51°21.483 3°1.069 64.9 14.4 61 13.3
2004-07-12 07:19:28 51°21.491 3°1.092 64.5 14.4 61 13.4
2004-07-12 07:19:34 51°21.501 3°1.126 64.4 14.3 62 13.3
2004-07-12 07:19:39 51°21.511 3°1.154 64.9 14.4 62 13.1
2004-07-12 07:19:44 51°21.52 3°1.182 64.5 14.4 62 13
2004-07-12 07:19:49 51°21.529 3°1.21 64.2 14.2 60 13
2004-07-12 07:19:54 51°21.538 3°1.238 63.3 14.1 62 13
2004-07-12 07:19:59 51°21.548 3°1.265 64.5 14.2 60 13.2
2004-07-12 07:20:04 51°21.557 3°1.293 63.9 14.2 63 13.3
2004-07-12 07:20:09 51°21.566 3°1.321 64.5 14.3 63 13.4
2004-07-12 07:20:14 51°21.575 3°1.35 65.4 14.2 63 13.4
2004-07-12 07:20:18 51°21.582 3°1.372 64.5 14.1 63 13.6
2004-07-12 07:20:24 51°21.593 3°1.406 63.8 14.2 63 13.2
2004-07-12 07:20:28 51°21.6 3°1.428 64.6 14.3 63 13
2004-07-12 07:20:34 51°21.612 3°1.461 64.7 14.3 61 13.2
2004-07-12 07:20:38 51°21.62 3°1.483 62.4 14.2 60 13.1
2004-07-12 07:20:44 51°21.633 3°1.514 61.3 14.2 58 13.2
2004-07-12 07:20:48 51°21.642 3°1.535 58.9 14.2 56 13.4
2004-07-12 07:20:54 51°21.657 3°1.565 56.4 14.3 52 13.6
2004-07-12 07:20:58 51°21.666 3°1.584 54.3 14.1 52 13.5
2004-07-12 07:21:04 51°21.681 3°1.614 53.6 14.1 51 13.7
2004-07-12 07:21:09 51°21.694 3°1.637 52 14.3 49 13.8
2004-07-12 07:21:14 51°21.707 3°1.661 50.8 14.3 49 13.7
2004-07-12 07:21:17 51°21.715 3°1.674 49.6 14.2 45 13.5
2004-07-12 07:21:24 51°21.734 3°1.705 47.9 14.2 45 13.4
2004-07-12 07:21:29 51°21.748 3°1.727 46.4 13.8 44 13
2004-07-12 07:21:34 51°21.762 3°1.749 45.6 13.8 43 13
2004-07-12 07:21:38 51°21.774 3°1.764 43 13.9 39 13.2
2004-07-12 07:21:44 51°21.792 3°1.788 41.3 13.9 39 13.1
2004-07-12 07:21:49 51°21.807 3°1.807 39.9 13.9 39 13.4
2004-07-12 07:21:54 51°21.823 3°1.826 39.5 14 38 13.7
2004-07-12 07:21:59 51°21.838 3°1.844 38.5 14 36 13.5
2004-07-12 07:22:04 51°21.854 3°1.863 37.8 14 36 14
2004-07-12 07:22:09 51°21.87 3°1.881 37.8 14.1 37 14
2004-07-12 07:22:14 51°21.885 3°1.9 38.5 13.9 37 13.6
2004-07-12 07:22:18 51°21.897 3°1.916 38.5 13.9 39 13.8
2004-07-12 07:22:24 51°21.915 3°1.937 39.1 14 39 13.5
2004-07-12 07:22:29 51°21.931 3°1.957 38.3 14 38 13.7
2004-07-12 07:22:33 51°21.943 3°1.971 38.5 14 36 13.5
2004-07-12 07:22:38 51°21.959 3°1.99 38.2 14.1 37 13.5
2004-07-12 07:22:44 51°21.978 3°2.013 38.3 14.1 38 13.4
2004-07-12 07:22:48 51°21.99 3°2.028 38.5 14.1 38 13.7
2004-07-12 07:22:54 51°22.008 3°2.051 38.5 13.9 38 13.4
2004-07-12 07:22:58 51°22.02 3°2.067 39.4 13.8 39 13.4
2004-07-12 07:23:04 51°22.038 3°2.089 39.2 13.9 39 13.3
2004-07-12 07:23:09 51°22.053 3°2.108 39 13.9 37 13.4
2004-07-12 07:23:14 51°22.068 3°2.127 38.9 13.9 38 13.2
2004-07-12 07:23:17 51°22.078 3°2.139 39.2 14 38 13.5
2004-07-12 07:23:24 51°22.099 3°2.165 39.3 14 38 13.3
2004-07-12 07:23:29 51°22.114 3°2.185 39.4 14 39 13.2
2004-07-12 07:23:34 51°22.13 3°2.204 39.8 14 38 13.3
2004-07-12 07:23:38 51°22.142 3°2.219 39.7 14.1 38 13.4
2004-07-12 07:23:44 51°22.161 3°2.242 39.5 13.9 38 13.6
2004-07-12 07:23:49 51°22.175 3°2.262 38.5 13.8 39 13.2
2004-07-12 07:23:54 51°22.191 3°2.281 39.3 13.8 38 13.3
2004-07-12 07:23:58 51°22.203 3°2.297 40.3 13.9 39 13.4
2004-07-12 07:24:04 51°22.221 3°2.319 40.2 14 38 13.1
2004-07-12 07:24:09 51°22.236 3°2.339 39.6 14 38 13.2
2004-07-12 07:24:14 51°22.251 3°2.358 39.6 14 38 13.3
2004-07-12 07:24:17 51°22.261 3°2.369 38.9 14.1 38 13.4
2004-07-12 07:24:24 51°22.282 3°2.396 39.7 14 38 13.3
2004-07-12 07:24:29 51°22.297 3°2.415 39.5 13.7 39 13.3
2004-07-12 07:24:34 51°22.311 3°2.435 39.9 13.7 41 13.1
2004-07-12 07:24:38 51°22.323 3°2.45 41.1 13.9 38 13.2
2004-07-12 07:24:44 51°22.342 3°2.473 40.2 13.7 38 13.3
2004-07-12 07:24:49 51°22.357 3°2.491 39.8 13.7 37 13.2
2004-07-12 07:24:54 51°22.371 3°2.511 39.1 13.7 40 13
2004-07-12 07:24:58 51°22.384 3°2.526 39.4 13.9 38 13.6
2004-07-12 07:25:04 51°22.402 3°2.549 39.6 13.6 39 13.1
2004-07-12 07:25:09 51°22.417 3°2.568 40 13.9 37 12.9
2004-07-12 07:25:14 51°22.432 3°2.587 39.1 13.9 38 13
2004-07-12 07:25:17 51°22.441 3°2.598 39.7 13.9 38 13.1
2004-07-12 07:25:24 51°22.462 3°2.625 39.6 13.8 39 12.8
2004-07-12 07:25:29 51°22.477 3°2.645 39.9 13.9 40 13.1
2004-07-12 07:25:34 51°22.492 3°2.664 40.8 13.9 39 13.1
2004-07-12 07:25:38 51°22.504 3°2.68 40.3 14 39 13.2
2004-07-12 07:25:44 51°22.522 3°2.703 39.9 13.8 38 13.2
2004-07-12 07:25:49 51°22.537 3°2.722 39.6 13.8 40 13.1
2004-07-12 07:25:54 51°22.553 3°2.742 40.4 14 38 13.4
2004-07-12 07:25:58 51°22.565 3°2.758 40.7 14 38 13.3
2004-07-12 07:26:04 51°22.583 3°2.781 40 14.1 38 13.4
2004-07-12 07:26:09 51°22.598 3°2.8 39.8 14 39 13.5
2004-07-12 07:26:14 51°22.614 3°2.82 40.6 14.1 39 13.7
2004-07-12 07:26:17 51°22.623 3°2.832 40.1 14.1 37 13.6
2004-07-12 07:26:24 51°22.644 3°2.858 39.5 14 38 13.5
2004-07-12 07:26:29 51°22.659 3°2.878 40.7 14.1 38 13.5
2004-07-12 07:26:34 51°22.675 3°2.898 39.7 14 38 13.2
2004-07-12 07:26:38 51°22.686 3°2.914 40.3 14.1 40 13.1
2004-07-12 07:26:44 51°22.704 3°2.939 40.6 13.6 43 -999
2004-07-12 07:26:49 51°22.718 3°2.959 42.1 13.7 43 12.8
2004-07-12 07:26:54 51°22.733 3°2.978 42.5 13.8 39 12.6
2004-07-12 07:26:59 51°22.747 3°2.998 41.3 13.9 41 12.5
2004-07-12 07:27:04 51°22.762 3°3.017 40.6 14 39 12.6
2004-07-12 07:27:09 51°22.777 3°3.036 39.8 13.8 38 12.5
2004-07-12 07:27:13 51°22.789 3°3.052 39.5 13.8 39 12.6
2004-07-12 07:27:19 51°22.807 3°3.075 39.5 13.9 40 12.1
2004-07-12 07:27:24 51°22.822 3°3.095 40.4 13.9 39 11.9
2004-07-12 07:27:29 51°22.837 3°3.114 39.8 13.8 38 11.8
2004-07-12 07:27:34 51°22.852 3°3.134 39.9 13.9 40 12
2004-07-12 07:27:39 51°22.867 3°3.153 40.1 13.9 40 12.1
2004-07-12 07:27:44 51°22.881 3°3.174 40.2 14.2 41 12.1
2004-07-12 07:27:48 51°22.893 3°3.189 41.3 14.2 41 12.1
2004-07-12 07:27:54 51°22.911 3°3.215 39.9 14.4 41 12.3
2004-07-12 07:27:59 51°22.927 3°3.234 40.1 14.2 39 12.2
2004-07-12 07:28:04 51°22.942 3°3.254 39.9 14 40 12.5
2004-07-12 07:28:09 51°22.957 3°3.274 40.3 14.2 40 12.5
2004-07-12 07:28:13 51°22.969 3°3.291 40.3 14.4 40 12.9
2004-07-12 07:28:19 51°22.988 3°3.315 40.6 14.3 41 13
2004-07-12 07:28:24 51°23.003 3°3.336 40.3 14.3 40 13.2
2004-07-12 07:28:28 51°23.015 3°3.351 40.1 14.3 40 13.1
2004-07-12 07:28:34 51°23.033 3°3.376 40.9 14.4 40 13.1
2004-07-12 07:28:38 51°23.046 3°3.392 39.8 14.3 39 13.3
2004-07-12 07:28:44 51°23.064 3°3.417 40.2 14.3 41 13.4
2004-07-12 07:28:49 51°23.079 3°3.437 40.3 14.2 40 13.5
2004-07-12 07:28:54 51°23.094 3°3.457 40.7 14.2 40 14
2004-07-12 07:28:58 51°23.106 3°3.473 40.4 14.1 39 14
2004-07-12 07:29:04 51°23.124 3°3.499 40.5 14.3 40 14.3
2004-07-12 07:29:09 51°23.139 3°3.518 40.6 14.2 39 14.3
2004-07-12 07:29:14 51°23.154 3°3.539 39.7 14.1 41 14
2004-07-12 07:29:18 51°23.166 3°3.555 40.4 14.1 40 13.9
2004-07-12 07:29:24 51°23.184 3°3.579 40.1 14.1 40 14
2004-07-12 07:29:29 51°23.199 3°3.599 39.8 14.1 40 14.5
2004-07-12 07:29:34 51°23.214 3°3.618 39.9 14.1 39 14.3
2004-07-12 07:29:39 51°23.228 3°3.639 40.3 13.9 41 14.2
2004-07-12 07:29:44 51°23.243 3°3.659 40.5 13.9 40 14.6
2004-07-12 07:29:49 51°23.258 3°3.679 40.6 13.8 42 14.3
2004-07-12 07:29:54 51°23.272 3°3.7 41.1 13.8 41 14.5
2004-07-12 07:29:58 51°23.284 3°3.715 40.5 13.8 39 14.4
2004-07-12 07:30:04 51°23.303 3°3.739 39.3 14 39 14.5
2004-07-12 07:30:08 51°23.314 3°3.755 39.1 14 40 14.4
2004-07-12 07:30:14 51°23.333 3°3.779 39.6 14.2 39 14.4
2004-07-12 07:30:20 51°23.351 3°3.803 39.5 14.1 40 14.6
2004-07-12 07:30:24 51°23.363 3°3.82 39.9 14.2 40 14.7
2004-07-12 07:30:29 51°23.378 3°3.84 39.8 14.2 40 14.7
2004-07-12 07:30:33 51°23.39 3°3.856 39.8 14.1 40 14.7
2004-07-12 07:30:39 51°23.408 3°3.88 41 14.2 41 14.9
2004-07-12 07:30:44 51°23.423 3°3.901 40 14 43 15
2004-07-12 07:30:48 51°23.435 3°3.918 40.5 14 43 14.5
2004-07-12 07:30:54 51°23.452 3°3.943 41.2 14.1 42 14.8
2004-07-12 07:30:59 51°23.466 3°3.963 40.8 14 43 14.3
2004-07-12 07:31:04 51°23.481 3°3.983 41 13.9 41 14
2004-07-12 07:31:09 51°23.496 3°4.002 39.9 13.9 39 13.8
2004-07-12 07:31:13 51°23.508 3°4.019 39.7 14 41 14.3
2004-07-12 07:31:19 51°23.526 3°4.042 39.7 14.1 39 14.8
2004-07-12 07:31:24 51°23.541 3°4.062 40.3 14 38 14.8
2004-07-12 07:31:28 51°23.553 3°4.077 39.3 14.1 38 14.7
2004-07-12 07:31:34 51°23.571 3°4.102 39.8 14 41 14.7
2004-07-12 07:31:37 51°23.58 3°4.114 40 14.1 41 14.8
2004-07-12 07:31:44 51°23.601 3°4.143 41 14.2 39 14.5
2004-07-12 07:31:49 51°23.616 3°4.163 40.4 14.2 42 14.5
2004-07-12 07:31:54 51°23.631 3°4.183 40.6 14.1 40 14.5
2004-07-12 07:31:59 51°23.646 3°4.203 39.8 14.2 39 14.7
2004-07-12 07:32:04 51°23.661 3°4.223 40 14.1 40 14.4
2004-07-12 07:32:08 51°23.673 3°4.239 40.3 14 40 14.4
2004-07-12 07:32:14 51°23.691 3°4.263 40.3 14 39 14.7
2004-07-12 07:32:18 51°23.703 3°4.28 39.9 14 41 14.6
2004-07-12 07:32:24 51°23.721 3°4.303 40.6 14 38 14.5
2004-07-12 07:32:29 51°23.736 3°4.324 39.3 14.2 42 14.5
2004-07-12 07:32:34 51°23.751 3°4.344 40.6 14.2 39 14.7
2004-07-12 07:32:38 51°23.763 3°4.36 39.7 14.1 41 14.6
2004-07-12 07:32:44 51°23.781 3°4.385 40.1 14.1 40 14.8
2004-07-12 07:32:49 51°23.796 3°4.405 40.2 14 41 14.8
2004-07-12 07:32:53 51°23.808 3°4.42 39.1 13.8 39 15
2004-07-12 07:32:58 51°23.823 3°4.439 37.9 13.8 38 15.1
2004-07-12 07:33:04 51°23.841 3°4.461 38.3 13.8 36 15.2
2004-07-12 07:33:09 51°23.857 3°4.479 36.4 13.8 36 14.8
2004-07-12 07:33:14 51°23.873 3°4.496 36 13.9 34 15.3
2004-07-12 07:33:18 51°23.886 3°4.511 34.7 14 34 15.4
2004-07-12 07:33:24 51°23.905 3°4.532 35.4 14 36 15.7
2004-07-12 07:33:29 51°23.921 3°4.55 34.7 14 35 16
2004-07-12 07:33:33 51°23.934 3°4.565 34.8 14.2 36 15.9
2004-07-12 07:33:39 51°23.952 3°4.585 34.8 13.8 34 15.9
2004-07-12 07:33:44 51°23.968 3°4.604 34.7 13.9 37 16.5
2004-07-12 07:33:49 51°23.984 3°4.621 34.5 13.9 35 16.5
2004-07-12 07:33:53 51°23.997 3°4.635 34.1 13.9 34 16.6
2004-07-12 07:33:58 51°24.013 3°4.652 33.2 13.9 33 17
2004-07-12 07:34:04 51°24.033 3°4.671 31.7 13.8 33 17.6
2004-07-12 07:34:09 51°24.049 3°4.688 30.7 14.1 33 18
2004-07-12 07:34:14 51°24.066 3°4.704 30.4 13.9 32 19
2004-07-12 07:34:19 51°24.082 3°4.719 30 13.7 31 19.8
2004-07-12 07:34:24 51°24.098 3°4.736 30 13.6 33 20.2
2004-07-12 07:34:28 51°24.111 3°4.749 29.7 13.7 34 20.2
2004-07-12 07:34:34 51°24.129 3°4.767 30.4 13.3 32 19.6
2004-07-12 07:34:37 51°24.139 3°4.776 30.4 13.5 32 19.7
2004-07-12 07:34:50 51°24.181 3°4.816 29.4 13.7 31 20.9
2004-07-12 07:34:52 51°24.187 3°4.822 29.1 13.6 30 21.1
2004-07-12 07:35:00 51°24.213 3°4.847 29.4 13.5 30 20.7
2004-07-12 07:35:05 51°24.23 3°4.862 29.7 13.7 29 21
2004-07-12 07:35:10 51°24.246 3°4.878 29.1 13.8 31 20.4
2004-07-12 07:35:14 51°24.259 3°4.89 29.6 13.7 30 21
2004-07-12 07:35:20 51°24.279 3°4.909 29.4 13.8 32 20.8
2004-07-12 07:35:24 51°24.292 3°4.921 29.8 13.7 30 20.9
2004-07-12 07:35:30 51°24.312 3°4.94 29.4 13.8 31 20.4
2004-07-12 07:35:34 51°24.325 3°4.953 29.8 13.8 32 20.1
2004-07-12 07:35:40 51°24.344 3°4.971 29.8 13.8 29 19.2
2004-07-12 07:35:45 51°24.361 3°4.987 29.6 13.9 32 19
2004-07-12 07:35:50 51°24.377 3°5.002 29.8 13.8 30 18.6
2004-07-12 07:35:53 51°24.387 3°5.011 29 13.8 29 18.1
2004-07-12 07:36:00 51°24.41 3°5.032 29 13.7 29 17.7
2004-07-12 07:36:05 51°24.426 3°5.048 29.5 13.6 31 17
2004-07-12 07:36:10 51°24.443 3°5.064 29.9 13.6 31 16.7
2004-07-12 07:36:15 51°24.459 3°5.08 29.9 13.6 32 16.5
2004-07-12 07:36:20 51°24.475 3°5.095 30.1 13.7 31 15.9
2004-07-12 07:36:25 51°24.492 3°5.11 30.2 13.7 29 15.6
2004-07-12 07:36:30 51°24.508 3°5.125 29.3 13.6 30 15.3
2004-07-12 07:36:35 51°24.524 3°5.141 30.1 13.7 31 15
2004-07-12 07:36:40 51°24.541 3°5.156 30.5 13.7 30 14.9
2004-07-12 07:36:44 51°24.554 3°5.168 29.3 13.8 30 14.6
2004-07-12 07:36:49 51°24.571 3°5.183 29 13.8 28 14.7
2004-07-12 07:36:55 51°24.591 3°5.2 28.3 13.8 28 14.8
2004-07-12 07:37:00 51°24.608 3°5.214 27.5 13.7 28 14.8
2004-07-12 07:37:05 51°24.625 3°5.227 27.4 13.7 26 15
2004-07-12 07:37:08 51°24.635 3°5.236 26.5 13.7 26 14.7
2004-07-12 07:37:15 51°24.659 3°5.255 26.8 13.7 27 14.8
2004-07-12 07:37:20 51°24.676 3°5.269 27.6 13.6 26 14.9
2004-07-12 07:37:24 51°24.689 3°5.28 26.8 13.4 28 14.6
2004-07-12 07:37:30 51°24.709 3°5.297 27.5 13.4 28 14.8
2004-07-12 07:37:34 51°24.722 3°5.309 27.5 13.5 27 15
2004-07-12 07:37:40 51°24.742 3°5.325 26.5 13.5 26 14.8
2004-07-12 07:37:44 51°24.756 3°5.336 27.3 13.5 27 14.9
2004-07-12 07:37:50 51°24.776 3°5.352 26.8 13.4 27 14.9
2004-07-12 07:37:55 51°24.793 3°5.366 27.5 13.4 27 15
2004-07-12 07:38:00 51°24.809 3°5.38 27.2 13.6 28 14.8
2004-07-12 07:38:04 51°24.823 3°5.39 27.1 13.6 26 14.9
2004-07-12 07:38:10 51°24.843 3°5.407 26.7 13.6 28 14.9
2004-07-12 07:38:15 51°24.86 3°5.42 26.7 13.5 26 14.6
2004-07-12 07:38:20 51°24.876 3°5.435 26.8 13.5 28 14.5
2004-07-12 07:38:25 51°24.894 3°5.448 27.2 13.6 26 14.7
2004-07-12 07:38:30 51°24.91 3°5.462 26.6 13.5 28 14.4
2004-07-12 07:38:35 51°24.927 3°5.475 27.6 13.6 26 14.5
2004-07-12 07:38:40 51°24.944 3°5.489 26.7 13.7 27 14.3
2004-07-12 07:38:44 51°24.957 3°5.499 26.8 13.5 25 14.3
2004-07-12 07:38:48 51°24.971 3°5.511 26.7 13.7 28 14.4
2004-07-12 07:38:54 51°24.991 3°5.527 26.8 13.7 27 14.3
2004-07-12 07:39:00 51°25.011 3°5.543 26.3 13.5 27 13.7
2004-07-12 07:39:04 51°25.024 3°5.554 26.8 13.6 28 13.8
2004-07-12 07:39:10 51°25.044 3°5.571 28 13.5 29 14
2004-07-12 07:39:14 51°25.058 3°5.582 26.8 13.5 26 13.9
2004-07-12 07:39:20 51°25.078 3°5.598 27.7 13.5 27 14.1
2004-07-12 07:39:25 51°25.094 3°5.612 27.4 13.3 27 13.6
2004-07-12 07:39:30 51°25.111 3°5.626 26.8 13.3 28 14
2004-07-12 07:39:33 51°25.121 3°5.634 27.5 13.5 28 13.9
2004-07-12 07:39:40 51°25.145 3°5.653 26.8 13.6 25 13.9
2004-07-12 07:39:45 51°25.161 3°5.667 26.8 13.4 28 13.6
2004-07-12 07:39:50 51°25.178 3°5.68 27.3 13.4 28 13.4
2004-07-12 07:39:55 51°25.195 3°5.694 26.9 13.5 26 13.5
2004-07-12 07:40:00 51°25.212 3°5.708 27.9 13.6 25 13.5
2004-07-12 07:40:05 51°25.228 3°5.721 26.8 13.5 27 13.3
2004-07-12 07:40:10 51°25.245 3°5.735 27.1 13.5 27 13.4
2004-07-12 07:40:15 51°25.261 3°5.749 26.8 13.5 27 13.1
2004-07-12 07:40:20 51°25.278 3°5.763 28.2 13.3 28 13.5
2004-07-12 07:40:25 51°25.294 3°5.778 28.3 13.2 30 13.2
2004-07-12 07:40:29 51°25.307 3°5.789 29.1 13.2 28 12.9
2004-07-12 07:40:34 51°25.323 3°5.803 28.7 13.4 28 13.4
2004-07-12 07:40:40 51°25.343 3°5.82 27.4 13.4 28 13.1
2004-07-12 07:40:44 51°25.356 3°5.831 27.6 13.4 28 13
2004-07-12 07:40:50 51°25.376 3°5.849 28.5 13.5 31 13.2
2004-07-12 07:40:55 51°25.392 3°5.864 30.2 13.3 30 12.9
2004-07-12 07:41:00 51°25.407 3°5.879 30.8 13.5 33 12.9
2004-07-12 07:41:05 51°25.423 3°5.896 32 13.5 33 13.1
2004-07-12 07:41:10 51°25.439 3°5.911 33.1 13.5 31 12.8
2004-07-12 07:41:15 51°25.455 3°5.928 32.8 13.4 34 13
2004-07-12 07:41:20 51°25.471 3°5.944 33.1 13.4 32 12.8
2004-07-12 07:41:24 51°25.483 3°5.957 33.4 13.6 34 12.9
2004-07-12 07:41:30 51°25.502 3°5.977 33.2 13.6 34 12.7
2004-07-12 07:41:35 51°25.517 3°5.995 34.7 13.7 36 12.4
2004-07-12 07:41:40 51°25.531 3°6.014 36.2 13.6 39 12.2
2004-07-12 07:41:45 51°25.546 3°6.033 39 13.4 39 12.5
2004-07-12 07:41:50 51°25.561 3°6.051 39.9 13.4 38 12.3
2004-07-12 07:41:55 51°25.575 3°6.071 40.1 13.6 40 12.4
2004-07-12 07:42:00 51°25.59 3°6.09 40.4 13.6 41 12.4
2004-07-12 07:42:05 51°25.603 3°6.112 41.6 13.7 45 12.3
2004-07-12 07:42:10 51°25.616 3°6.134 45.7 13.8 47 12.3
2004-07-12 07:42:14 51°25.626 3°6.153 47.7 13.9 52 12.4
2004-07-12 07:42:20 51°25.641 3°6.182 52.2 14 50 12.2
2004-07-12 07:42:25 51°25.652 3°6.207 52.1 14 53 12.2
2004-07-12 07:42:30 51°25.664 3°6.232 54 14 53 12.3
2004-07-12 07:42:34 51°25.672 3°6.253 55.3 14 58 12.1
2004-07-12 07:42:40 51°25.685 3°6.284 57.7 14 56 12.1
2004-07-12 07:42:44 51°25.693 3°6.305 58.7 14.1 60 12.1
2004-07-12 07:42:50 51°25.705 3°6.338 60.4 14.2 59 12
2004-07-12 07:42:53 51°25.711 3°6.355 60.9 14.2 60 11.6
2004-07-12 07:43:00 51°25.724 3°6.393 61.8 14.2 61 11.8
2004-07-12 07:43:05 51°25.734 3°6.42 62.4 14.2 58 11.9
2004-07-12 07:43:10 51°25.744 3°6.447 60.9 14.2 58 12
2004-07-12 07:43:15 51°25.755 3°6.474 60.7 14.1 59 12.4
2004-07-12 07:43:20 51°25.764 3°6.501 60.7 14 60 12
2004-07-12 07:43:25 51°25.774 3°6.528 61.6 14.3 60 12.2
2004-07-12 07:43:30 51°25.784 3°6.555 61 14.5 60 11.9
2004-07-12 07:43:35 51°25.795 3°6.582 60.2 14.4 58 11.9
2004-07-12 07:43:40 51°25.805 3°6.609 60.1 14.3 60 11.9
2004-07-12 07:43:45 51°25.815 3°6.636 60.6 14.3 59 12
2004-07-12 07:43:50 51°25.825 3°6.664 60 14.4 60 12.1
2004-07-12 07:43:54 51°25.834 3°6.685 60.8 14.1 56 12
2004-07-12 07:44:00 51°25.845 3°6.717 60.2 14.1 60 12
2004-07-12 07:44:05 51°25.856 3°6.744 61.9 14.2 58 12.1
2004-07-12 07:44:10 51°25.866 3°6.77 60.4 14.2 58 12.3
2004-07-12 07:44:15 51°25.876 3°6.798 60.4 14.3 60 12.3
2004-07-12 07:44:20 51°25.887 3°6.824 61.1 14.4 58 12.3